Time;durP1;ratioP1;P1;durP2;ratioP2;P2;SDS_P1;SDS_P2;PMS_P1;PMS_P2;Temp;Humidity;BMP_temperature;BMP_pressure;BME280_temperature;BME280_humidity;BME280_pressure;Samples;Min_cycle;Max_cycle;Signal;HPM_P1;HPM_P2
2024/01/08 00:01:16;;;;;;;4.85;3.47;;;-0.60;99.90;;;;;;5015658;28;20485;-74
2024/01/08 00:03:42;;;;;;;7.55;3.80;;;-0.60;99.90;;;;;;5032018;28;20117;-74
2024/01/08 00:06:07;;;;;;;7.57;3.63;;;-0.60;99.90;;;;;;5032138;28;20038;-74
2024/01/08 00:08:33;;;;;;;6.55;3.88;;;-0.70;99.90;;;;;;5031874;28;20108;-74
2024/01/08 00:10:58;;;;;;;8.00;4.03;;;-0.60;99.90;;;;;;5032209;28;20042;-74
2024/01/08 00:13:24;;;;;;;6.40;3.53;;;-0.80;99.90;;;;;;5032070;28;20485;-74
2024/01/08 00:15:50;;;;;;;9.48;5.47;;;-0.80;99.90;;;;;;5031905;28;20041;-74
2024/01/08 00:18:16;;;;;;;6.47;3.90;;;-0.80;99.90;;;;;;5031585;28;20068;-74
2024/01/08 00:20:42;;;;;;;7.22;4.47;;;-0.80;99.90;;;;;;5032060;28;20559;-74
2024/01/08 00:23:08;;;;;;;6.00;3.53;;;-0.80;99.90;;;;;;5032107;28;20525;-74
2024/01/08 00:25:34;;;;;;;6.18;3.58;;;-0.90;99.90;;;;;;5031578;28;20049;-74
2024/01/08 00:28:00;;;;;;;8.52;4.20;;;-1.00;99.90;;;;;;5031616;28;20069;-74
2024/01/08 00:30:26;;;;;;;7.45;4.28;;;-1.00;99.90;;;;;;5031665;28;20485;-74
2024/01/08 00:32:52;;;;;;;7.82;3.92;;;-0.90;99.90;;;;;;5031631;28;20048;-74
2024/01/08 00:35:17;;;;;;;6.57;3.70;;;-0.90;99.90;;;;;;5031276;28;20033;-74
2024/01/08 00:37:43;;;;;;;8.68;4.47;;;-1.00;99.90;;;;;;5031131;28;20053;-74
2024/01/08 00:40:10;;;;;;;6.95;3.90;;;-0.90;99.90;;;;;;5031374;28;20417;-74
2024/01/08 00:42:36;;;;;;;5.45;3.80;;;-1.00;99.90;;;;;;5031402;28;20037;-74
2024/01/08 00:45:05;;;;;;;6.95;3.60;;;-0.90;99.90;;;;;;5031316;28;20477;-74
2024/01/08 00:47:31;;;;;;;7.10;3.70;;;-0.90;99.90;;;;;;5030729;28;20033;-74
2024/01/08 00:49:57;;;;;;;6.75;3.28;;;-1.00;99.90;;;;;;5030973;28;20041;-74
2024/01/08 00:52:23;;;;;;;7.00;4.25;;;-1.00;99.90;;;;;;5031264;28;20040;-74
2024/01/08 00:54:48;;;;;;;8.35;3.95;;;-1.00;99.90;;;;;;5014591;28;20045;-74
2024/01/08 00:57:14;;;;;;;6.75;4.63;;;-1.00;99.90;;;;;;5030435;28;20052;-74
2024/01/08 00:59:39;;;;;;;6.70;3.85;;;-1.00;99.90;;;;;;5030944;28;20509;-74
2024/01/08 01:02:05;;;;;;;8.70;4.03;;;-1.10;99.90;;;;;;5031072;28;20460;-74
2024/01/08 01:04:30;;;;;;;8.23;4.75;;;-1.10;99.90;;;;;;5014366;28;20507;-74
2024/01/08 01:06:56;;;;;;;6.47;3.67;;;-1.10;99.90;;;;;;5032162;28;20121;-74
2024/01/08 01:09:22;;;;;;;8.60;4.45;;;-1.00;99.90;;;;;;5030731;28;20069;-74
2024/01/08 01:11:47;;;;;;;8.40;4.32;;;-1.00;99.90;;;;;;5031183;28;20049;-74
2024/01/08 01:14:13;;;;;;;6.88;3.88;;;-1.00;99.90;;;;;;5030791;28;20084;-75
2024/01/08 01:16:38;;;;;;;9.32;4.85;;;-1.10;99.90;;;;;;5030709;28;20045;-74
2024/01/08 01:19:04;;;;;;;7.07;3.90;;;-1.10;99.90;;;;;;5030688;28;20041;-74
2024/01/08 01:21:30;;;;;;;8.10;4.35;;;-1.00;99.90;;;;;;5030693;28;20394;-74
2024/01/08 01:23:55;;;;;;;6.57;4.03;;;-1.00;99.90;;;;;;5030800;28;20405;-74
2024/01/08 01:26:21;;;;;;;7.78;3.95;;;-1.00;99.90;;;;;;5031948;28;20041;-74
2024/01/08 01:28:47;;;;;;;7.72;4.68;;;-1.00;99.90;;;;;;5030772;28;20416;-74
2024/01/08 01:31:12;;;;;;;10.90;5.00;;;-1.00;99.90;;;;;;5030627;28;20041;-74
2024/01/08 01:33:39;;;;;;;7.25;4.38;;;-0.90;99.90;;;;;;5030490;28;20132;-74
2024/01/08 01:36:08;;;;;;;7.90;4.40;;;-0.80;99.90;;;;;;5030497;28;20053;-74
2024/01/08 01:38:34;;;;;;;6.38;4.38;;;-0.90;99.90;;;;;;5030198;28;20049;-74
2024/01/08 01:41:00;;;;;;;8.02;4.70;;;-0.90;99.90;;;;;;5030374;28;20041;-74
2024/01/08 01:43:28;;;;;;;9.40;4.65;;;-0.90;99.90;;;;;;5030345;28;20044;-74
2024/01/08 01:45:56;;;;;;;8.50;4.82;;;-0.80;99.90;;;;;;5030386;28;20087;-74
2024/01/08 01:48:23;;;;;;;9.20;5.07;;;-0.80;99.90;;;;;;5030117;28;20464;-74
2024/01/08 01:50:49;;;;;;;8.75;4.72;;;-0.80;99.90;;;;;;5031556;28;20088;-74
2024/01/08 01:53:15;;;;;;;10.07;4.75;;;-0.80;99.90;;;;;;5030306;28;20101;-74
2024/01/08 01:55:42;;;;;;;11.55;5.50;;;-0.80;99.90;;;;;;5031683;28;20112;-74
2024/01/08 01:58:11;;;;;;;8.77;5.18;;;-0.80;99.90;;;;;;5030271;28;20511;-74
2024/01/08 02:00:37;;;;;;;9.15;6.45;;;-0.70;99.90;;;;;;5030253;28;20087;-74
2024/01/08 02:03:04;;;;;;;7.65;4.75;;;-0.70;99.90;;;;;;5031671;28;20034;-74
2024/01/08 02:05:30;;;;;;;10.13;4.93;;;-0.60;99.90;;;;;;5013520;28;20041;-74
2024/01/08 02:07:58;;;;;;;9.40;5.30;;;-0.60;99.90;;;;;;5029988;28;20125;-75
2024/01/08 02:10:24;;;;;;;11.70;5.60;;;-0.60;99.90;;;;;;5035359;28;20120;-75
2024/01/08 02:12:51;;;;;;;10.13;5.45;;;-0.60;99.90;;;;;;5034273;28;20052;-74
2024/01/08 02:15:16;;;;;;;9.95;6.07;;;-0.60;99.90;;;;;;5034380;28;20128;-75
2024/01/08 02:17:42;;;;;;;8.13;5.70;;;-0.60;99.90;;;;;;5033922;28;20083;-75
2024/01/08 02:20:08;;;;;;;9.85;5.57;;;-0.60;99.90;;;;;;5034141;28;20045;-75
2024/01/08 02:22:43;;;;;;;8.25;5.38;;;-0.60;99.90;;;;;;5034033;28;20073;-74
2024/01/08 02:25:10;;;;;;;11.25;5.55;;;-0.50;99.90;;;;;;5017367;28;20504;-75
2024/01/08 02:27:35;;;;;;;11.65;5.85;;;-0.50;99.90;;;;;;5033809;28;20048;-75
2024/01/08 02:30:01;;;;;;;8.38;5.50;;;-0.50;99.90;;;;;;5033859;28;20037;-74
2024/01/08 02:32:27;;;;;;;10.75;6.30;;;-0.50;99.90;;;;;;5034053;28;20044;-75
2024/01/08 02:34:52;;;;;;;9.13;4.78;;;-0.40;99.90;;;;;;5033935;28;20512;-75
2024/01/08 02:37:18;;;;;;;10.43;6.03;;;-0.40;99.90;;;;;;5035023;28;20501;-75
2024/01/08 02:39:43;;;;;;;13.77;6.35;;;-0.30;99.90;;;;;;5033580;28;20045;-75
2024/01/08 02:42:09;;;;;;;11.60;5.70;;;-0.40;99.90;;;;;;5033664;28;20049;-75
2024/01/08 02:44:34;;;;;;;11.43;6.20;;;-0.30;99.90;;;;;;5033556;28;20107;-75
2024/01/08 02:47:01;;;;;;;8.60;5.70;;;-0.30;99.90;;;;;;5033487;28;20079;-75
2024/01/08 02:49:27;;;;;;;11.32;5.65;;;-0.30;99.90;;;;;;5033343;28;20116;-75
2024/01/08 02:51:53;;;;;;;11.55;6.47;;;-0.30;99.90;;;;;;5033530;28;20509;-75
2024/01/08 02:54:18;;;;;;;9.07;5.32;;;-0.20;99.90;;;;;;5033393;28;20054;-74
2024/01/08 02:56:44;;;;;;;9.07;5.82;;;-0.20;99.90;;;;;;5033326;28;20124;-75
2024/01/08 02:59:09;;;;;;;11.88;5.85;;;-0.40;99.90;;;;;;5033281;28;20422;-75
2024/01/08 03:01:36;;;;;;;11.38;6.18;;;-0.40;99.90;;;;;;5033418;28;20044;-75
2024/01/08 03:04:02;;;;;;;10.32;5.15;;;-0.40;99.90;;;;;;5062856;22;20068;-68
2024/01/08 03:06:27;;;;;;;10.95;6.18;;;-0.30;99.90;;;;;;5094346;28;20119;-68
2024/01/08 03:08:53;;;;;;;10.23;5.70;;;-0.30;99.90;;;;;;5093307;28;20477;-68
2024/01/08 03:11:18;;;;;;;8.32;4.75;;;-0.30;99.90;;;;;;5093503;28;20040;-68
2024/01/08 03:13:44;;;;;;;10.45;5.55;;;-0.30;99.90;;;;;;5093984;28;20050;-68
2024/01/08 03:16:10;;;;;;;7.38;4.82;;;-0.20;99.90;;;;;;5094504;28;20129;-68
2024/01/08 03:18:35;;;;;;;9.63;4.90;;;-0.30;99.90;;;;;;5094052;28;20050;-69
2024/01/08 03:21:01;;;;;;;7.32;4.25;;;-0.20;99.90;;;;;;5093939;28;20048;-68
2024/01/08 03:23:27;;;;;;;7.13;4.05;;;-0.30;99.90;;;;;;5094532;28;20085;-68
2024/01/08 03:25:53;;;;;;;8.70;5.55;;;-0.20;99.90;;;;;;5094154;28;20127;-68
2024/01/08 03:28:18;;;;;;;8.25;4.38;;;-0.30;99.90;;;;;;5094001;28;20075;-69
2024/01/08 03:30:44;;;;;;;8.98;4.80;;;-0.40;99.90;;;;;;5093275;28;20113;-69
2024/01/08 03:33:10;;;;;;;9.38;5.50;;;-0.30;99.90;;;;;;5094130;28;20036;-69
2024/01/08 03:35:35;;;;;;;7.05;4.32;;;-0.30;99.90;;;;;;5094228;28;20040;-69
2024/01/08 03:38:01;;;;;;;7.90;4.40;;;-0.40;99.90;;;;;;5093741;28;20036;-69
2024/01/08 03:40:27;;;;;;;6.75;4.40;;;-0.30;99.90;;;;;;5094091;28;20036;-69
2024/01/08 03:42:53;;;;;;;7.55;4.68;;;-0.40;99.90;;;;;;5092754;28;20711;-69
2024/01/08 03:45:18;;;;;;;8.18;3.90;;;-0.30;99.90;;;;;;5093800;28;20111;-69
2024/01/08 03:47:44;;;;;;;9.65;4.65;;;-0.40;99.90;;;;;;5093559;28;20039;-69
2024/01/08 03:50:10;;;;;;;7.70;4.28;;;-0.40;99.90;;;;;;5076026;28;20090;-69
2024/01/08 03:52:35;;;;;;;7.20;4.03;;;-0.40;99.90;;;;;;5093929;28;20040;-69
2024/01/08 03:55:01;;;;;;;7.18;4.28;;;-0.40;99.90;;;;;;5093721;28;20043;-69
2024/01/08 03:57:27;;;;;;;9.55;4.18;;;-0.30;99.90;;;;;;5093839;28;20689;-69
2024/01/08 03:59:53;;;;;;;6.60;3.92;;;-0.40;99.90;;;;;;5093601;28;20415;-69
2024/01/08 04:02:18;;;;;;;7.07;4.05;;;-0.40;99.90;;;;;;5093539;28;20043;-69
2024/01/08 04:04:44;;;;;;;7.85;4.18;;;-0.30;99.90;;;;;;5093621;28;20036;-69
2024/01/08 04:07:10;;;;;;;12.68;4.32;;;-0.40;99.90;;;;;;5093803;28;20040;-69
2024/01/08 04:09:36;;;;;;;9.23;4.40;;;-0.30;99.90;;;;;;5093609;28;20047;-69
2024/01/08 04:12:04;;;;;;;7.80;3.92;;;-0.30;99.90;;;;;;5093803;28;20122;-69
2024/01/08 04:14:30;;;;;;;8.23;4.00;;;-0.40;99.90;;;;;;5093555;28;20073;-69
2024/01/08 04:16:56;;;;;;;6.38;3.30;;;-0.40;99.90;;;;;;5093328;28;20036;-69
2024/01/08 04:19:22;;;;;;;6.10;3.53;;;-0.40;99.90;;;;;;5093599;28;20044;-69
2024/01/08 04:21:48;;;;;;;5.90;3.50;;;-0.40;99.90;;;;;;5093435;28;20102;-69
2024/01/08 04:24:14;;;;;;;5.90;3.72;;;-0.50;99.90;;;;;;5092182;28;20059;-69
2024/01/08 04:26:39;;;;;;;5.38;3.45;;;-0.50;99.90;;;;;;5093235;28;20547;-69
2024/01/08 04:29:05;;;;;;;5.63;3.40;;;-0.50;99.90;;;;;;5093094;28;20044;-69
2024/01/08 04:31:31;;;;;;;6.40;3.33;;;-0.60;99.90;;;;;;5092097;28;20044;-69
2024/01/08 04:33:57;;;;;;;6.68;3.42;;;-0.60;99.90;;;;;;5074988;28;20169;-69
2024/01/08 04:36:22;;;;;;;8.43;4.55;;;-0.60;99.90;;;;;;5091846;28;20040;-69
2024/01/08 04:38:48;;;;;;;6.15;3.15;;;-0.60;99.90;;;;;;5092899;28;20040;-69
2024/01/08 04:41:19;;;;;;;4.65;2.80;;;-0.60;99.90;;;;;;5093022;28;20040;-69
2024/01/08 04:43:45;;;;;;;5.90;2.92;;;-0.70;99.90;;;;;;5091364;28;20040;-69
2024/01/08 04:46:10;;;;;;;4.82;2.80;;;-0.60;99.90;;;;;;5091477;28;20084;-69
2024/01/08 04:48:36;;;;;;;4.53;2.88;;;-0.60;99.90;;;;;;5092782;28;20113;-69
2024/01/08 04:51:01;;;;;;;4.97;3.47;;;-0.70;99.90;;;;;;5091496;28;20059;-69
2024/01/08 04:53:27;;;;;;;6.00;3.53;;;-0.80;99.90;;;;;;5092820;28;20043;-69
2024/01/08 04:55:53;;;;;;;5.18;3.17;;;-0.80;99.90;;;;;;5092532;28;20499;-69
2024/01/08 04:58:18;;;;;;;4.70;3.25;;;-0.90;99.90;;;;;;5092281;28;20123;-69
2024/01/08 05:00:44;;;;;;;4.80;3.20;;;-0.90;99.90;;;;;;5092513;28;20152;-69
2024/01/08 05:03:09;;;;;;;6.47;4.10;;;-0.90;99.90;;;;;;5091155;28;20039;-69
2024/01/08 05:05:35;;;;;;;6.63;3.53;;;-0.90;99.90;;;;;;5092265;28;20040;-69
2024/01/08 05:08:01;;;;;;;6.53;4.18;;;-0.90;99.90;;;;;;5090824;28;20384;-69
2024/01/08 05:10:26;;;;;;;7.60;3.60;;;-1.00;99.90;;;;;;5092421;28;20377;-69
2024/01/08 05:12:52;;;;;;;6.70;3.42;;;-1.00;99.90;;;;;;5092274;28;20078;-69
2024/01/08 05:15:17;;;;;;;4.22;3.00;;;-1.00;99.90;;;;;;5092294;28;20048;-69
2024/01/08 05:17:43;;;;;;;7.03;3.28;;;-1.00;99.90;;;;;;5092185;28;20483;-69
2024/01/08 05:20:10;;;;;;;7.00;3.30;;;-1.00;99.90;;;;;;5092329;28;20039;-69
2024/01/08 05:22:35;;;;;;;5.97;3.42;;;-1.00;99.90;;;;;;5092152;28;20051;-69
2024/01/08 05:25:01;;;;;;;8.10;4.10;;;-1.00;99.90;;;;;;5092046;28;20047;-68
2024/01/08 05:27:26;;;;;;;7.97;3.90;;;-1.00;99.90;;;;;;5091908;28;20419;-69
2024/01/08 05:29:52;;;;;;;6.30;3.72;;;-1.10;99.90;;;;;;5091740;28;20687;-69
2024/01/08 05:32:18;;;;;;;8.40;3.88;;;-1.00;99.90;;;;;;5092189;28;20499;-68
2024/01/08 05:34:43;;;;;;;7.28;3.42;;;-1.10;99.90;;;;;;5091918;28;20376;-68
2024/01/08 05:37:09;;;;;;;5.13;3.83;;;-1.20;99.90;;;;;;5090636;28;20039;-69
2024/01/08 05:39:35;;;;;;;7.25;3.83;;;-1.20;99.90;;;;;;5091859;28;20438;-69
2024/01/08 05:42:01;;;;;;;11.85;5.43;;;-1.20;99.90;;;;;;5090485;28;20078;-69
2024/01/08 05:44:27;;;;;;;8.52;4.05;;;-1.20;99.90;;;;;;5091477;28;20116;-69
2024/01/08 05:46:53;;;;;;;10.77;3.92;;;-1.20;99.90;;;;;;5090611;28;20458;-69
2024/01/08 05:49:18;;;;;;;7.82;4.72;;;-1.20;99.90;;;;;;5091761;28;20032;-69
2024/01/08 05:51:44;;;;;;;9.75;4.40;;;-1.10;99.90;;;;;;5091762;28;20522;-69
2024/01/08 05:54:09;;;;;;;7.68;3.97;;;-1.20;99.90;;;;;;5091649;28;20111;-69
2024/01/08 05:56:37;;;;;;;10.15;4.20;;;-1.10;99.90;;;;;;5091593;28;20036;-69
2024/01/08 05:59:03;;;;;;;8.95;5.03;;;-1.10;99.90;;;;;;5090407;28;20090;-69
2024/01/08 06:01:28;;;;;;;12.43;4.63;;;-1.20;99.90;;;;;;5091703;28;20044;-69
2024/01/08 06:03:54;;;;;;;8.15;4.50;;;-1.10;99.90;;;;;;5091570;28;20093;-69
2024/01/08 06:06:20;;;;;;;10.82;4.88;;;-1.20;99.90;;;;;;5091525;28;20036;-69
2024/01/08 06:08:46;;;;;;;12.70;5.53;;;-1.00;99.90;;;;;;5091562;28;20101;-69
2024/01/08 06:11:12;;;;;;;9.35;4.53;;;-1.00;99.90;;;;;;5091610;28;20036;-69
2024/01/08 06:13:37;;;;;;;6.40;3.70;;;-0.90;99.90;;;;;;5091500;28;20487;-69
2024/01/08 06:16:03;;;;;;;9.45;4.63;;;-0.90;99.90;;;;;;5091616;28;20157;-68
2024/01/08 06:18:31;;;;;;;9.38;5.63;;;-0.90;99.90;;;;;;5091335;28;20033;-68
2024/01/08 06:20:57;;;;;;;7.28;4.45;;;-0.90;99.90;;;;;;5091485;28;20032;-68
2024/01/08 06:23:23;;;;;;;10.77;4.72;;;-0.80;99.90;;;;;;5091547;28;20039;-68
2024/01/08 06:25:48;;;;;;;6.28;4.05;;;-0.90;99.90;;;;;;5091263;28;20032;-69
2024/01/08 06:28:14;;;;;;;10.57;3.75;;;-0.90;99.90;;;;;;5091204;28;20123;-71
2024/01/08 06:30:39;;;;;;;7.88;4.00;;;-0.90;99.90;;;;;;5091468;28;20496;-69
2024/01/08 06:33:08;;;;;;;10.23;4.65;;;-0.80;99.90;;;;;;5091456;28;20036;-69
2024/01/08 06:35:33;;;;;;;9.50;4.18;;;-0.70;99.90;;;;;;5091282;28;20044;-69
2024/01/08 06:38:00;;;;;;;7.72;4.05;;;-0.70;99.90;;;;;;5091144;28;20044;-69
2024/01/08 06:40:27;;;;;;;8.73;4.18;;;-0.80;99.90;;;;;;5090032;28;20032;-69
2024/01/08 06:42:52;;;;;;;6.18;3.55;;;-0.70;99.90;;;;;;5072984;28;20455;-70
2024/01/08 06:45:18;;;;;;;9.80;3.42;;;-0.60;99.90;;;;;;5090890;28;20115;-70
2024/01/08 06:47:44;;;;;;;6.80;3.80;;;-0.70;99.90;;;;;;5090411;28;20543;-69
2024/01/08 06:50:10;;;;;;;7.55;4.03;;;-0.60;99.90;;;;;;5091308;28;20120;-69
2024/01/08 06:52:35;;;;;;;9.18;4.07;;;-0.60;99.90;;;;;;5091242;28;20127;-70
2024/01/08 06:55:01;;;;;;;9.05;4.20;;;-0.60;99.90;;;;;;5090702;28;20542;-73
2024/01/08 06:57:27;;;;;;;6.78;4.60;;;-0.50;99.90;;;;;;5094945;28;20487;-73
2024/01/08 06:59:52;;;;;;;7.40;3.78;;;-0.60;99.90;;;;;;5093475;28;20043;-73
2024/01/08 07:02:18;;;;;;;6.68;4.47;;;-0.50;99.90;;;;;;5094925;28;20118;-73
2024/01/08 07:04:44;;;;;;;6.55;4.20;;;-0.60;99.90;;;;;;5093532;28;20085;-73
2024/01/08 07:07:09;;;;;;;5.50;3.53;;;-0.60;99.90;;;;;;5094686;28;20043;-73
2024/01/08 07:09:35;;;;;;;6.72;2.95;;;-0.50;99.90;;;;;;5093368;28;20153;-73
2024/01/08 07:12:01;;;;;;;10.40;4.80;;;-0.50;99.90;;;;;;5094613;28;20058;-73
2024/01/08 07:14:27;;;;;;;7.18;3.97;;;-0.50;99.90;;;;;;5093533;28;20119;-73
2024/01/08 07:16:53;;;;;;;6.57;3.08;;;-0.50;99.90;;;;;;5094681;28;20523;-73
2024/01/08 07:19:18;;;;;;;8.40;3.63;;;-0.50;99.90;;;;;;5076439;28;20032;-73
2024/01/08 07:21:44;;;;;;;6.15;3.63;;;-0.40;99.90;;;;;;5094391;28;20075;-73
2024/01/08 07:24:10;;;;;;;10.18;3.92;;;-0.50;99.90;;;;;;5094374;28;20411;-73
2024/01/08 07:26:36;;;;;;;9.38;4.07;;;-0.50;99.90;;;;;;5094361;28;20043;-73
2024/01/08 07:29:02;;;;;;;10.10;3.30;;;-0.40;99.90;;;;;;5092925;28;20449;-73
2024/01/08 07:31:30;;;;;;;6.95;3.55;;;-0.30;99.90;;;;;;5094218;28;20456;-73
2024/01/08 07:33:56;;;;;;;5.07;3.20;;;-0.40;99.90;;;;;;5094089;28;20042;-73
2024/01/08 07:36:21;;;;;;;7.35;4.50;;;-0.30;99.90;;;;;;5094132;28;20036;-73
2024/01/08 07:38:47;;;;;;;8.52;3.90;;;-0.30;99.90;;;;;;5092577;28;20063;-73
2024/01/08 07:41:14;;;;;;;6.93;3.83;;;-0.30;99.90;;;;;;5094313;28;20077;-73
2024/01/08 07:43:40;;;;;;;6.38;2.97;;;-0.40;99.90;;;;;;5093019;28;20032;-73
2024/01/08 07:46:05;;;;;;;5.53;4.03;;;-0.40;99.90;;;;;;5093945;28;20036;-73
2024/01/08 07:48:31;;;;;;;7.20;3.95;;;-0.30;99.90;;;;;;5093752;28;20069;-73
2024/01/08 07:50:56;;;;;;;9.60;4.53;;;-0.30;99.90;;;;;;5092619;28;20512;-73
2024/01/08 07:53:22;;;;;;;7.57;3.60;;;-0.30;99.90;;;;;;5093789;28;20403;-73
2024/01/08 07:55:48;;;;;;;8.68;4.03;;;-0.20;99.90;;;;;;5093921;28;20039;-72
2024/01/08 07:58:13;;;;;;;10.32;3.83;;;-0.20;99.90;;;;;;5092237;28;20067;-72
2024/01/08 08:00:40;;;;;;;8.10;3.60;;;-0.30;99.90;;;;;;5092683;28;20111;-72
2024/01/08 08:03:07;;;;;;;8.75;4.60;;;-0.20;99.90;;;;;;5093522;28;20075;-72
2024/01/08 08:05:33;;;;;;;8.40;3.45;;;-0.30;99.90;;;;;;5091828;28;20097;-73
2024/01/08 08:07:58;;;;;;;7.40;3.88;;;-0.20;99.90;;;;;;5091777;28;20044;-72
2024/01/08 08:10:24;;;;;;;5.60;3.22;;;-0.20;99.90;;;;;;5092475;28;20202;-72
2024/01/08 08:12:51;;;;;;;5.03;3.45;;;-0.30;99.90;;;;;;5093255;28;20141;-72
2024/01/08 08:15:17;;;;;;;6.35;3.03;;;-0.10;99.90;;;;;;5093510;28;20040;-72
2024/01/08 08:17:43;;;;;;;6.72;3.10;;;-0.20;99.90;;;;;;5091854;28;20035;-73
2024/01/08 08:20:12;;;;;;;8.65;3.85;;;-0.20;99.90;;;;;;5093400;28;20119;-72
2024/01/08 08:22:37;;;;;;;8.35;4.10;;;-0.10;99.90;;;;;;5093113;28;20044;-73
2024/01/08 08:25:04;;;;;;;9.57;3.92;;;-0.20;99.90;;;;;;5091878;28;20569;-72
2024/01/08 08:27:30;;;;;;;8.20;3.67;;;-0.10;99.90;;;;;;5091812;28;20039;-72
2024/01/08 08:29:56;;;;;;;5.38;3.58;;;-0.10;99.90;;;;;;5093044;28;20044;-72
2024/01/08 08:32:22;;;;;;;6.68;2.92;;;-0.10;99.90;;;;;;5093040;28;20088;-73
2024/01/08 08:34:47;;;;;;;7.22;3.45;;;0.00;99.90;;;;;;5092947;28;20118;-72
2024/01/08 08:37:14;;;;;;;5.97;3.25;;;0.00;99.90;;;;;;5091569;28;20044;-73
2024/01/08 08:39:40;;;;;;;8.00;2.67;;;0.00;99.90;;;;;;5091429;28;20523;-72
2024/01/08 08:42:07;;;;;;;5.55;2.47;;;0.00;99.90;;;;;;5092976;28;20047;-73
2024/01/08 08:44:33;;;;;;;5.20;2.80;;;0.10;99.90;;;;;;5078440;28;20067;-73
2024/01/08 08:46:59;;;;;;;7.03;3.03;;;0.10;99.90;;;;;;5072390;28;20082;-72
2024/01/08 08:49:25;;;;;;;7.03;3.03;;;0.10;99.90;;;;;;5071305;28;20044;-72
2024/01/08 08:51:51;;;;;;;6.07;2.97;;;0.20;99.90;;;;;;5072396;28;20045;-72
2024/01/08 08:54:16;;;;;;;7.00;2.65;;;0.20;99.90;;;;;;5072508;28;20500;-72
2024/01/08 08:56:42;;;;;;;7.70;3.28;;;0.20;99.90;;;;;;5072263;28;20128;-72
2024/01/08 08:59:08;;;;;;;5.97;2.55;;;0.30;99.90;;;;;;5072163;28;20036;-72
2024/01/08 09:01:34;;;;;;;6.07;2.42;;;0.40;99.90;;;;;;5072133;28;20542;-72
2024/01/08 09:06:34;;;;;;;5.25;2.85;;;0.50;99.90;;;;;;5029124;28;20325;-73
2024/01/08 09:09:00;;;;;;;7.28;3.67;;;0.60;99.90;;;;;;5030023;28;20049;-73
2024/01/08 09:11:27;;;;;;;4.45;2.47;;;0.50;99.90;;;;;;5014166;28;20034;-73
2024/01/08 09:13:53;;;;;;;4.22;2.33;;;0.60;99.90;;;;;;5014406;28;20559;-73
2024/01/08 09:16:19;;;;;;;5.60;2.70;;;0.60;99.90;;;;;;5032606;28;20072;-73
2024/01/08 09:18:45;;;;;;;3.22;2.00;;;0.70;99.90;;;;;;5033200;28;20463;-73
2024/01/08 09:21:11;;;;;;;8.05;2.50;;;0.70;99.90;;;;;;5051876;28;20056;-73
2024/01/08 09:23:39;;;;;;;9.77;2.42;;;0.70;99.90;;;;;;5017655;28;20041;-73
2024/01/08 09:26:05;;;;;;;4.38;2.20;;;0.70;99.90;;;;;;5033627;28;20086;-73
2024/01/08 09:28:31;;;;;;;6.68;2.35;;;0.80;99.90;;;;;;5051548;28;20378;-73
2024/01/08 09:30:59;;;;;;;4.90;2.08;;;0.70;99.90;;;;;;5033917;28;20044;-73
2024/01/08 09:33:25;;;;;;;6.00;2.95;;;0.70;99.90;;;;;;5051625;28;20044;-73
2024/01/08 09:35:50;;;;;;;3.90;2.17;;;0.60;99.90;;;;;;5017336;28;20067;-73
2024/01/08 09:38:16;;;;;;;4.50;2.15;;;0.50;99.90;;;;;;5051515;28;20048;-73
2024/01/08 09:40:42;;;;;;;4.03;2.42;;;0.50;99.90;;;;;;5033901;28;20401;-73
2024/01/08 09:43:09;;;;;;;4.85;2.50;;;0.50;99.90;;;;;;5051520;28;20073;-73
2024/01/08 09:45:42;;;;;;;3.20;1.98;;;0.50;99.90;;;;;;5051410;28;20041;-73
2024/01/08 09:48:10;;;;;;;3.97;2.50;;;0.50;99.90;;;;;;5051265;28;20037;-72
2024/01/08 09:50:37;;;;;;;4.43;2.25;;;0.50;99.90;;;;;;5033714;28;20037;-73
2024/01/08 09:53:04;;;;;;;4.93;2.10;;;0.50;99.90;;;;;;5051365;28;20037;-73
2024/01/08 09:55:30;;;;;;;4.18;2.03;;;0.50;99.90;;;;;;5051390;28;20037;-73
2024/01/08 09:57:56;;;;;;;5.72;2.28;;;0.50;99.90;;;;;;5051084;28;20045;-73
2024/01/08 10:00:22;;;;;;;5.75;2.50;;;0.50;99.90;;;;;;5033371;28;20045;-73
2024/01/08 10:02:56;;;;;;;3.83;2.33;;;0.60;99.90;;;;;;5051210;28;20052;-73
2024/01/08 10:05:22;;;;;;;;;;;0.60;99.90;;;;;;5033752;28;20489;-72
2024/01/08 10:07:47;;;;;;;2.95;1.77;;;0.60;99.90;;;;;;5051113;28;19931;-72
2024/01/08 10:10:13;;;;;;;4.38;2.08;;;0.60;99.90;;;;;;5033367;28;20424;-73
2024/01/08 10:12:39;;;;;;;3.95;1.98;;;0.60;99.90;;;;;;5033474;28;20040;-75
2024/01/08 10:15:06;;;;;;;4.15;2.05;;;0.60;99.90;;;;;;5033350;28;20121;-75
2024/01/08 10:17:32;;;;;;;3.90;2.17;;;0.60;99.90;;;;;;5033597;28;20063;-75
2024/01/08 10:20:10;;;;;;;3.75;2.10;;;0.60;99.90;;;;;;5051205;28;20037;-72
2024/01/08 10:22:36;;;;;;;5.55;2.90;;;0.60;99.90;;;;;;5051162;28;20041;-72
2024/01/08 10:25:03;;;;;;;6.03;2.25;;;0.60;99.90;;;;;;5033439;28;20067;-73
2024/01/08 10:27:30;;;;;;;4.97;2.72;;;0.60;99.90;;;;;;5033120;28;20501;-75
2024/01/08 10:29:56;;;;;;;3.50;2.22;;;0.60;99.90;;;;;;5034131;28;20532;-74
2024/01/08 10:32:25;;;;;;;3.72;2.40;;;0.60;99.90;;;;;;5037090;28;20492;-75
2024/01/08 10:34:51;;;;;;;3.90;2.15;;;0.70;99.90;;;;;;5020850;28;20045;-75
2024/01/08 10:37:18;;;;;;;4.95;2.50;;;0.70;99.90;;;;;;5037305;28;20388;-74
2024/01/08 10:39:47;;;;;;;6.20;2.67;;;0.70;99.90;;;;;;5036859;28;20041;-74
2024/01/08 10:42:13;;;;;;;5.18;3.25;;;0.70;99.90;;;;;;5037024;28;20527;-75
2024/01/08 10:44:39;;;;;;;6.07;3.42;;;0.70;99.90;;;;;;5036866;28;20497;-74
2024/01/08 10:47:10;;;;;;;5.05;2.50;;;0.70;99.90;;;;;;5036852;28;20033;-74
2024/01/08 10:49:38;;;;;;;4.20;2.10;;;0.70;99.90;;;;;;5054801;28;20500;-75
2024/01/08 10:52:21;;;;;;;3.13;2.63;;;0.70;99.90;;;;;;5036860;28;20037;-75
2024/01/08 10:54:57;;;;;;;4.45;2.17;;;0.80;99.90;;;;;;5036623;28;20056;-75
2024/01/08 10:57:41;;;;;;;4.30;2.50;;;0.70;99.90;;;;;;5036926;28;20094;-75
2024/01/08 11:00:12;;;;;;;4.68;2.60;;;0.70;99.90;;;;;;5036762;28;20529;-75
2024/01/08 11:02:39;;;;;;;5.63;3.08;;;0.70;99.90;;;;;;5036673;28;20099;-75
2024/01/08 11:05:08;;;;;;;7.47;2.58;;;0.70;99.90;;;;;;5052922;28;20072;-75
2024/01/08 11:07:41;;;;;;;4.47;2.35;;;0.70;99.90;;;;;;5034005;28;20083;-75
2024/01/08 11:10:09;;;;;;;5.13;2.20;;;0.80;99.90;;;;;;5032692;28;20036;-75
2024/01/08 11:12:41;;;;;;;5.38;2.83;;;0.80;99.90;;;;;;5016036;28;20128;-74
2024/01/08 11:15:07;;;;;;;5.65;3.05;;;0.90;99.90;;;;;;5036003;28;20445;-74
2024/01/08 11:17:34;;;;;;;4.95;2.55;;;0.90;99.90;;;;;;5034121;28;20052;-74
2024/01/08 11:19:59;;;;;;;4.03;2.00;;;0.90;99.90;;;;;;5036838;28;20182;-74
2024/01/08 11:22:25;;;;;;;8.65;3.38;;;0.90;99.90;;;;;;5036799;28;20136;-75
2024/01/08 11:25:00;;;;;;;4.30;2.83;;;0.80;99.90;;;;;;5055223;28;20044;-77
2024/01/08 11:27:26;;;;;;;6.82;2.20;;;0.90;99.90;;;;;;5036553;28;20059;-75
2024/01/08 11:30:01;;;;;;;7.15;2.70;;;0.90;99.90;;;;;;5053777;28;20041;-77
2024/01/08 11:32:44;;;;;;;5.75;2.35;;;0.90;99.90;;;;;;5034272;28;20068;-75
2024/01/08 11:35:13;;;;;;;5.15;1.80;;;0.90;99.90;;;;;;5036437;28;20608;-75
2024/01/08 11:37:44;;;;;;;6.22;2.47;;;0.80;99.90;;;;;;5035924;28;20041;-75
2024/01/08 11:40:12;;;;;;;5.95;3.50;;;0.80;99.90;;;;;;5035658;28;20049;-75
2024/01/08 11:42:38;;;;;;;3.30;2.78;;;0.80;99.90;;;;;;5035800;28;20087;-75
2024/01/08 11:45:04;;;;;;;5.82;2.67;;;0.80;99.90;;;;;;5036187;28;20547;-75
2024/01/08 11:47:34;;;;;;;3.05;2.00;;;0.80;99.90;;;;;;5035886;28;20041;-73
2024/01/08 11:50:00;;;;;;;5.60;2.75;;;0.80;99.90;;;;;;5036134;28;20399;-73
2024/01/08 11:52:27;;;;;;;4.75;2.28;;;0.80;99.90;;;;;;5035715;28;20048;-73
2024/01/08 11:54:54;;;;;;;5.55;2.25;;;0.80;99.90;;;;;;5035769;28;20441;-73
2024/01/08 11:57:20;;;;;;;3.63;2.25;;;0.90;99.90;;;;;;5035378;28;20086;-73
2024/01/08 11:59:46;;;;;;;3.60;2.78;;;0.90;99.90;;;;;;5035320;28;20052;-73
2024/01/08 12:02:23;;;;;;;3.65;2.42;;;0.90;99.90;;;;;;5053227;28;20041;-73
2024/01/08 12:04:59;;;;;;;5.18;2.33;;;0.80;99.90;;;;;;5050648;28;20032;-73
2024/01/08 12:07:27;;;;;;;6.82;2.65;;;0.80;99.90;;;;;;5015484;28;20049;-74
2024/01/08 12:09:53;;;;;;;5.65;2.20;;;0.70;99.90;;;;;;5015897;28;20077;-74
2024/01/08 12:12:22;;;;;;;3.05;1.95;;;0.70;99.90;;;;;;4999634;28;20125;-73
2024/01/08 12:14:49;;;;;;;4.55;2.25;;;0.60;99.90;;;;;;5015709;28;20049;-73
2024/01/08 12:17:16;;;;;;;4.18;2.45;;;0.70;99.90;;;;;;5033352;28;20072;-73
2024/01/08 12:19:49;;;;;;;4.50;1.98;;;0.70;99.90;;;;;;5033110;28;20048;-73
2024/01/08 12:22:16;;;;;;;6.55;2.45;;;0.70;99.90;;;;;;5015279;28;20041;-73
2024/01/08 12:24:45;;;;;;;4.50;2.25;;;0.70;99.90;;;;;;5015350;28;20033;-73
2024/01/08 12:27:14;;;;;;;4.10;2.08;;;0.70;99.90;;;;;;5015201;28;20120;-73
2024/01/08 12:29:41;;;;;;;4.72;2.58;;;0.70;99.90;;;;;;5032977;28;20109;-73
2024/01/08 12:32:09;;;;;;;4.05;2.33;;;0.70;99.90;;;;;;5015142;28;20037;-73
2024/01/08 12:34:37;;;;;;;4.40;1.95;;;0.70;99.90;;;;;;5015076;28;20045;-73
2024/01/08 12:37:04;;;;;;;4.10;2.67;;;0.70;99.90;;;;;;5014864;28;20065;-73
2024/01/08 12:39:31;;;;;;;7.38;2.60;;;0.70;99.90;;;;;;5014814;28;20049;-73
2024/01/08 12:41:58;;;;;;;6.63;3.47;;;0.80;99.90;;;;;;5032666;28;20037;-73
2024/01/08 12:44:33;;;;;;;7.43;2.60;;;0.80;99.90;;;;;;5015123;28;20378;-73
2024/01/08 12:47:01;;;;;;;5.90;2.90;;;0.80;99.90;;;;;;5032901;28;20563;-72
2024/01/08 12:49:27;;;;;;;3.65;2.22;;;0.80;99.90;;;;;;5040175;28;20033;-72